sensor_id;sensor_type;location;lat;lon;timestamp;P1;durP1;ratioP1;P2;durP2;ratioP2
67665;SDS011;54448;51.472;-2.574;2023-08-24T00:01:14;7.80;;;2.92;;
67665;SDS011;54448;51.472;-2.574;2023-08-24T00:03:41;7.50;;;2.70;;
67665;SDS011;54448;51.472;-2.574;2023-08-24T00:06:08;9.88;;;3.08;;
67665;SDS011;54448;51.472;-2.574;2023-08-24T00:08:34;11.88;;;3.20;;
67665;SDS011;54448;51.472;-2.574;2023-08-24T00:10:59;10.00;;;3.42;;
67665;SDS011;54448;51.472;-2.574;2023-08-24T00:13:25;12.43;;;3.03;;
67665;SDS011;54448;51.472;-2.574;2023-08-24T00:15:51;9.75;;;3.22;;
67665;SDS011;54448;51.472;-2.574;2023-08-24T00:18:18;7.72;;;3.00;;
67665;SDS011;54448;51.472;-2.574;2023-08-24T00:20:44;10.95;;;3.72;;
67665;SDS011;54448;51.472;-2.574;2023-08-24T00:23:09;4.95;;;2.80;;
67665;SDS011;54448;51.472;-2.574;2023-08-24T00:25:35;6.90;;;2.60;;
67665;SDS011;54448;51.472;-2.574;2023-08-24T00:28:00;8.55;;;2.95;;
67665;SDS011;54448;51.472;-2.574;2023-08-24T00:30:26;13.07;;;3.55;;
67665;SDS011;54448;51.472;-2.574;2023-08-24T00:32:51;9.80;;;3.60;;
67665;SDS011;54448;51.472;-2.574;2023-08-24T00:35:16;10.82;;;4.13;;
67665;SDS011;54448;51.472;-2.574;2023-08-24T00:37:42;10.98;;;4.60;;
67665;SDS011;54448;51.472;-2.574;2023-08-24T00:40:07;10.20;;;4.13;;
67665;SDS011;54448;51.472;-2.574;2023-08-24T00:42:37;8.80;;;3.35;;
67665;SDS011;54448;51.472;-2.574;2023-08-24T00:45:06;10.90;;;4.25;;
67665;SDS011;54448;51.472;-2.574;2023-08-24T00:47:34;8.18;;;3.85;;
67665;SDS011;54448;51.472;-2.574;2023-08-24T00:50:00;12.68;;;4.05;;
67665;SDS011;54448;51.472;-2.574;2023-08-24T00:52:25;10.70;;;3.72;;
67665;SDS011;54448;51.472;-2.574;2023-08-24T00:54:52;12.57;;;3.72;;
67665;SDS011;54448;51.472;-2.574;2023-08-24T00:57:17;11.98;;;3.72;;
67665;SDS011;54448;51.472;-2.574;2023-08-24T00:59:43;10.13;;;3.60;;
67665;SDS011;54448;51.472;-2.574;2023-08-24T01:02:08;8.00;;;3.50;;
67665;SDS011;54448;51.472;-2.574;2023-08-24T01:04:34;8.60;;;3.47;;
67665;SDS011;54448;51.472;-2.574;2023-08-24T01:06:59;18.38;;;5.20;;
67665;SDS011;54448;51.472;-2.574;2023-08-24T01:09:24;27.00;;;5.30;;
67665;SDS011;54448;51.472;-2.574;2023-08-24T01:12:04;45.42;;;7.88;;
67665;SDS011;54448;51.472;-2.574;2023-08-24T01:17:26;18.63;;;5.75;;
67665;SDS011;54448;51.472;-2.574;2023-08-24T01:19:55;18.13;;;5.03;;
67665;SDS011;54448;51.472;-2.574;2023-08-24T01:22:31;22.08;;;5.95;;
67665;SDS011;54448;51.472;-2.574;2023-08-24T01:25:11;18.80;;;4.85;;
67665;SDS011;54448;51.472;-2.574;2023-08-24T01:27:39;38.20;;;12.70;;
67665;SDS011;54448;51.472;-2.574;2023-08-24T01:30:05;25.88;;;8.38;;
67665;SDS011;54448;51.472;-2.574;2023-08-24T01:32:32;20.70;;;6.80;;
67665;SDS011;54448;51.472;-2.574;2023-08-24T01:34:59;18.65;;;5.85;;
67665;SDS011;54448;51.472;-2.574;2023-08-24T01:37:26;21.98;;;5.75;;
67665;SDS011;54448;51.472;-2.574;2023-08-24T01:45:10;24.80;;;7.10;;
67665;SDS011;54448;51.472;-2.574;2023-08-24T01:47:36;37.03;;;8.98;;
67665;SDS011;54448;51.472;-2.574;2023-08-24T01:50:02;44.72;;;10.77;;
67665;SDS011;54448;51.472;-2.574;2023-08-24T01:52:28;38.58;;;9.38;;
67665;SDS011;54448;51.472;-2.574;2023-08-24T01:54:54;31.73;;;8.98;;
67665;SDS011;54448;51.472;-2.574;2023-08-24T01:57:20;24.17;;;7.07;;
67665;SDS011;54448;51.472;-2.574;2023-08-24T01:59:45;16.67;;;6.28;;
67665;SDS011;54448;51.472;-2.574;2023-08-24T02:02:11;17.48;;;5.95;;
67665;SDS011;54448;51.472;-2.574;2023-08-24T02:04:36;31.67;;;8.77;;
67665;SDS011;54448;51.472;-2.574;2023-08-24T02:07:01;19.33;;;6.40;;
67665;SDS011;54448;51.472;-2.574;2023-08-24T02:09:27;29.42;;;6.43;;
67665;SDS011;54448;51.472;-2.574;2023-08-24T02:11:52;33.05;;;6.05;;
67665;SDS011;54448;51.472;-2.574;2023-08-24T02:14:18;16.98;;;5.60;;
67665;SDS011;54448;51.472;-2.574;2023-08-24T02:16:43;16.50;;;5.90;;
67665;SDS011;54448;51.472;-2.574;2023-08-24T02:19:08;17.63;;;5.47;;
67665;SDS011;54448;51.472;-2.574;2023-08-24T02:21:37;19.23;;;5.35;;
67665;SDS011;54448;51.472;-2.574;2023-08-24T02:24:03;29.95;;;6.68;;
67665;SDS011;54448;51.472;-2.574;2023-08-24T02:26:29;20.40;;;5.80;;
67665;SDS011;54448;51.472;-2.574;2023-08-24T02:28:54;30.23;;;7.10;;
67665;SDS011;54448;51.472;-2.574;2023-08-24T02:31:19;21.33;;;6.05;;
67665;SDS011;54448;51.472;-2.574;2023-08-24T02:33:45;20.67;;;5.88;;
67665;SDS011;54448;51.472;-2.574;2023-08-24T02:36:10;17.50;;;6.03;;
67665;SDS011;54448;51.472;-2.574;2023-08-24T02:38:36;22.13;;;5.40;;
67665;SDS011;54448;51.472;-2.574;2023-08-24T02:41:05;14.98;;;5.60;;
67665;SDS011;54448;51.472;-2.574;2023-08-24T02:43:31;22.05;;;5.95;;
67665;SDS011;54448;51.472;-2.574;2023-08-24T02:46:03;17.00;;;5.18;;
67665;SDS011;54448;51.472;-2.574;2023-08-24T02:48:31;16.67;;;5.25;;
67665;SDS011;54448;51.472;-2.574;2023-08-24T02:50:57;16.42;;;4.90;;
67665;SDS011;54448;51.472;-2.574;2023-08-24T02:53:23;14.40;;;4.75;;
67665;SDS011;54448;51.472;-2.574;2023-08-24T02:55:49;12.68;;;4.72;;
67665;SDS011;54448;51.472;-2.574;2023-08-24T02:58:14;16.00;;;4.30;;
67665;SDS011;54448;51.472;-2.574;2023-08-24T03:00:39;13.73;;;4.88;;
67665;SDS011;54448;51.472;-2.574;2023-08-24T03:03:05;14.50;;;4.88;;
67665;SDS011;54448;51.472;-2.574;2023-08-24T03:05:33;15.48;;;5.03;;
67665;SDS011;54448;51.472;-2.574;2023-08-24T03:07:59;12.43;;;4.22;;
67665;SDS011;54448;51.472;-2.574;2023-08-24T03:10:24;17.23;;;4.85;;
67665;SDS011;54448;51.472;-2.574;2023-08-24T03:12:50;10.90;;;3.58;;
67665;SDS011;54448;51.472;-2.574;2023-08-24T03:15:15;12.88;;;4.45;;
67665;SDS011;54448;51.472;-2.574;2023-08-24T03:17:41;14.32;;;4.68;;
67665;SDS011;54448;51.472;-2.574;2023-08-24T03:20:06;10.13;;;4.35;;
67665;SDS011;54448;51.472;-2.574;2023-08-24T03:22:33;14.85;;;4.78;;
67665;SDS011;54448;51.472;-2.574;2023-08-24T03:24:58;16.40;;;3.97;;
67665;SDS011;54448;51.472;-2.574;2023-08-24T03:27:23;12.07;;;4.50;;
67665;SDS011;54448;51.472;-2.574;2023-08-24T03:29:49;21.60;;;6.93;;
67665;SDS011;54448;51.472;-2.574;2023-08-24T03:32:14;14.45;;;4.95;;
67665;SDS011;54448;51.472;-2.574;2023-08-24T03:34:39;15.05;;;4.30;;
67665;SDS011;54448;51.472;-2.574;2023-08-24T03:37:05;11.55;;;4.30;;
67665;SDS011;54448;51.472;-2.574;2023-08-24T03:39:30;13.75;;;4.40;;
67665;SDS011;54448;51.472;-2.574;2023-08-24T03:41:56;10.60;;;4.43;;
67665;SDS011;54448;51.472;-2.574;2023-08-24T03:44:21;10.93;;;4.15;;
67665;SDS011;54448;51.472;-2.574;2023-08-24T03:46:47;15.57;;;5.13;;
67665;SDS011;54448;51.472;-2.574;2023-08-24T03:49:12;13.65;;;5.15;;
67665;SDS011;54448;51.472;-2.574;2023-08-24T03:51:37;15.88;;;5.10;;
67665;SDS011;54448;51.472;-2.574;2023-08-24T03:54:03;16.17;;;5.80;;
67665;SDS011;54448;51.472;-2.574;2023-08-24T03:56:30;18.30;;;6.05;;
67665;SDS011;54448;51.472;-2.574;2023-08-24T03:58:56;16.00;;;5.95;;
67665;SDS011;54448;51.472;-2.574;2023-08-24T04:01:21;19.08;;;5.13;;
67665;SDS011;54448;51.472;-2.574;2023-08-24T04:03:47;13.10;;;4.72;;
67665;SDS011;54448;51.472;-2.574;2023-08-24T04:06:12;12.52;;;4.55;;
67665;SDS011;54448;51.472;-2.574;2023-08-24T04:08:38;13.82;;;5.07;;
67665;SDS011;54448;51.472;-2.574;2023-08-24T04:11:03;12.38;;;4.93;;
67665;SDS011;54448;51.472;-2.574;2023-08-24T04:13:29;21.70;;;5.63;;
67665;SDS011;54448;51.472;-2.574;2023-08-24T04:15:54;16.63;;;5.45;;
67665;SDS011;54448;51.472;-2.574;2023-08-24T04:18:19;20.63;;;5.53;;
67665;SDS011;54448;51.472;-2.574;2023-08-24T04:20:45;21.95;;;6.20;;
67665;SDS011;54448;51.472;-2.574;2023-08-24T04:23:12;15.18;;;4.90;;
67665;SDS011;54448;51.472;-2.574;2023-08-24T04:25:41;14.90;;;5.35;;
67665;SDS011;54448;51.472;-2.574;2023-08-24T04:28:06;17.63;;;5.78;;
67665;SDS011;54448;51.472;-2.574;2023-08-24T04:30:31;13.98;;;4.78;;
67665;SDS011;54448;51.472;-2.574;2023-08-24T04:32:58;12.68;;;4.80;;
67665;SDS011;54448;51.472;-2.574;2023-08-24T04:35:24;12.23;;;4.70;;
67665;SDS011;54448;51.472;-2.574;2023-08-24T04:37:50;10.75;;;4.15;;
67665;SDS011;54448;51.472;-2.574;2023-08-24T04:40:15;15.15;;;4.50;;
67665;SDS011;54448;51.472;-2.574;2023-08-24T04:42:41;13.18;;;4.82;;
67665;SDS011;54448;51.472;-2.574;2023-08-24T04:45:06;10.77;;;4.43;;
67665;SDS011;54448;51.472;-2.574;2023-08-24T04:47:32;9.93;;;4.63;;
67665;SDS011;54448;51.472;-2.574;2023-08-24T04:49:58;8.50;;;4.40;;
67665;SDS011;54448;51.472;-2.574;2023-08-24T04:52:23;12.32;;;4.28;;
67665;SDS011;54448;51.472;-2.574;2023-08-24T04:54:48;16.98;;;4.65;;
67665;SDS011;54448;51.472;-2.574;2023-08-24T04:57:13;11.70;;;4.03;;
67665;SDS011;54448;51.472;-2.574;2023-08-24T04:59:39;15.15;;;5.05;;
67665;SDS011;54448;51.472;-2.574;2023-08-24T05:02:04;16.67;;;6.35;;
67665;SDS011;54448;51.472;-2.574;2023-08-24T05:04:29;15.82;;;6.43;;
67665;SDS011;54448;51.472;-2.574;2023-08-24T05:06:55;15.13;;;6.35;;
67665;SDS011;54448;51.472;-2.574;2023-08-24T05:09:20;13.07;;;5.68;;
67665;SDS011;54448;51.472;-2.574;2023-08-24T05:11:46;16.08;;;5.80;;
67665;SDS011;54448;51.472;-2.574;2023-08-24T05:14:11;10.63;;;5.05;;
67665;SDS011;54448;51.472;-2.574;2023-08-24T05:16:39;12.57;;;5.03;;
67665;SDS011;54448;51.472;-2.574;2023-08-24T05:19:04;13.25;;;5.43;;
67665;SDS011;54448;51.472;-2.574;2023-08-24T05:21:29;16.20;;;5.53;;
67665;SDS011;54448;51.472;-2.574;2023-08-24T05:23:55;15.80;;;5.28;;
67665;SDS011;54448;51.472;-2.574;2023-08-24T05:26:20;12.93;;;5.25;;
67665;SDS011;54448;51.472;-2.574;2023-08-24T05:28:49;13.38;;;5.10;;
67665;SDS011;54448;51.472;-2.574;2023-08-24T05:31:15;13.15;;;5.38;;
67665;SDS011;54448;51.472;-2.574;2023-08-24T05:33:40;17.55;;;7.13;;
67665;SDS011;54448;51.472;-2.574;2023-08-24T05:36:05;10.70;;;4.72;;
67665;SDS011;54448;51.472;-2.574;2023-08-24T05:38:31;13.50;;;5.85;;
67665;SDS011;54448;51.472;-2.574;2023-08-24T05:40:56;13.73;;;4.75;;
67665;SDS011;54448;51.472;-2.574;2023-08-24T05:43:21;10.13;;;4.75;;
67665;SDS011;54448;51.472;-2.574;2023-08-24T05:45:47;11.75;;;4.80;;
67665;SDS011;54448;51.472;-2.574;2023-08-24T05:48:13;15.02;;;6.32;;
67665;SDS011;54448;51.472;-2.574;2023-08-24T05:50:42;19.73;;;5.85;;
67665;SDS011;54448;51.472;-2.574;2023-08-24T05:53:08;18.20;;;5.95;;
67665;SDS011;54448;51.472;-2.574;2023-08-24T05:55:33;11.32;;;4.68;;
67665;SDS011;54448;51.472;-2.574;2023-08-24T05:57:59;14.02;;;5.78;;
67665;SDS011;54448;51.472;-2.574;2023-08-24T06:00:24;19.67;;;7.45;;
67665;SDS011;54448;51.472;-2.574;2023-08-24T06:02:49;13.68;;;6.18;;
67665;SDS011;54448;51.472;-2.574;2023-08-24T06:05:15;15.35;;;5.80;;
67665;SDS011;54448;51.472;-2.574;2023-08-24T06:07:42;11.82;;;5.22;;
67665;SDS011;54448;51.472;-2.574;2023-08-24T06:10:08;16.17;;;5.65;;
67665;SDS011;54448;51.472;-2.574;2023-08-24T06:12:33;18.63;;;6.90;;
67665;SDS011;54448;51.472;-2.574;2023-08-24T06:14:59;14.88;;;5.78;;
67665;SDS011;54448;51.472;-2.574;2023-08-24T06:17:27;13.75;;;6.18;;
67665;SDS011;54448;51.472;-2.574;2023-08-24T06:19:52;19.08;;;5.65;;
67665;SDS011;54448;51.472;-2.574;2023-08-24T06:22:18;15.35;;;5.25;;
67665;SDS011;54448;51.472;-2.574;2023-08-24T06:24:46;19.90;;;5.72;;
67665;SDS011;54448;51.472;-2.574;2023-08-24T06:27:12;16.38;;;5.65;;
67665;SDS011;54448;51.472;-2.574;2023-08-24T06:29:37;14.90;;;5.13;;
67665;SDS011;54448;51.472;-2.574;2023-08-24T06:32:02;14.48;;;5.32;;
67665;SDS011;54448;51.472;-2.574;2023-08-24T06:34:28;13.18;;;5.15;;
67665;SDS011;54448;51.472;-2.574;2023-08-24T06:36:53;13.85;;;5.72;;
67665;SDS011;54448;51.472;-2.574;2023-08-24T06:39:18;25.75;;;5.80;;
67665;SDS011;54448;51.472;-2.574;2023-08-24T06:41:44;16.67;;;5.20;;
67665;SDS011;54448;51.472;-2.574;2023-08-24T06:44:09;13.15;;;6.03;;
67665;SDS011;54448;51.472;-2.574;2023-08-24T06:46:35;17.60;;;5.22;;
67665;SDS011;54448;51.472;-2.574;2023-08-24T06:49:00;39.75;;;5.47;;
67665;SDS011;54448;51.472;-2.574;2023-08-24T06:51:26;16.60;;;4.90;;
67665;SDS011;54448;51.472;-2.574;2023-08-24T06:53:52;10.85;;;4.90;;
67665;SDS011;54448;51.472;-2.574;2023-08-24T06:56:17;11.13;;;4.55;;
67665;SDS011;54448;51.472;-2.574;2023-08-24T06:58:43;13.68;;;4.68;;
67665;SDS011;54448;51.472;-2.574;2023-08-24T07:01:10;26.60;;;5.43;;
67665;SDS011;54448;51.472;-2.574;2023-08-24T07:03:36;20.83;;;5.63;;
67665;SDS011;54448;51.472;-2.574;2023-08-24T07:06:01;18.75;;;4.70;;
67665;SDS011;54448;51.472;-2.574;2023-08-24T07:08:27;17.05;;;4.50;;
67665;SDS011;54448;51.472;-2.574;2023-08-24T07:10:52;17.65;;;4.70;;
67665;SDS011;54448;51.472;-2.574;2023-08-24T07:13:17;16.17;;;4.78;;
67665;SDS011;54448;51.472;-2.574;2023-08-24T07:15:43;16.67;;;4.03;;
67665;SDS011;54448;51.472;-2.574;2023-08-24T07:18:10;12.98;;;3.92;;
67665;SDS011;54448;51.472;-2.574;2023-08-24T07:20:36;14.43;;;4.22;;
67665;SDS011;54448;51.472;-2.574;2023-08-24T07:23:02;14.95;;;4.00;;
67665;SDS011;54448;51.472;-2.574;2023-08-24T07:25:27;12.32;;;4.60;;
67665;SDS011;54448;51.472;-2.574;2023-08-24T07:27:53;15.00;;;4.60;;
67665;SDS011;54448;51.472;-2.574;2023-08-24T07:30:23;16.00;;;4.53;;
67665;SDS011;54448;51.472;-2.574;2023-08-24T07:32:54;12.82;;;4.18;;
67665;SDS011;54448;51.472;-2.574;2023-08-24T07:35:20;19.02;;;4.50;;
67665;SDS011;54448;51.472;-2.574;2023-08-24T07:37:49;14.05;;;4.40;;
67665;SDS011;54448;51.472;-2.574;2023-08-24T07:40:14;16.58;;;4.70;;
67665;SDS011;54448;51.472;-2.574;2023-08-24T07:42:44;14.20;;;4.43;;
67665;SDS011;54448;51.472;-2.574;2023-08-24T07:45:13;11.13;;;4.20;;
67665;SDS011;54448;51.472;-2.574;2023-08-24T07:47:39;14.02;;;4.10;;
67665;SDS011;54448;51.472;-2.574;2023-08-24T07:50:05;12.77;;;3.75;;
67665;SDS011;54448;51.472;-2.574;2023-08-24T07:52:32;17.98;;;4.05;;
67665;SDS011;54448;51.472;-2.574;2023-08-24T07:54:57;14.38;;;3.65;;
67665;SDS011;54448;51.472;-2.574;2023-08-24T07:57:25;13.20;;;3.65;;
67665;SDS011;54448;51.472;-2.574;2023-08-24T07:59:53;9.65;;;3.42;;
67665;SDS011;54448;51.472;-2.574;2023-08-24T08:02:19;8.38;;;3.22;;
67665;SDS011;54448;51.472;-2.574;2023-08-24T08:04:45;12.32;;;3.75;;
67665;SDS011;54448;51.472;-2.574;2023-08-24T08:07:11;13.10;;;3.40;;
67665;SDS011;54448;51.472;-2.574;2023-08-24T08:09:36;7.85;;;2.97;;
67665;SDS011;54448;51.472;-2.574;2023-08-24T08:12:02;12.35;;;3.22;;
67665;SDS011;54448;51.472;-2.574;2023-08-24T08:14:28;7.85;;;2.83;;
67665;SDS011;54448;51.472;-2.574;2023-08-24T08:16:54;13.73;;;3.20;;
67665;SDS011;54448;51.472;-2.574;2023-08-24T08:19:19;11.50;;;2.75;;
67665;SDS011;54448;51.472;-2.574;2023-08-24T08:21:46;9.55;;;3.00;;
67665;SDS011;54448;51.472;-2.574;2023-08-24T08:24:12;9.85;;;3.15;;
67665;SDS011;54448;51.472;-2.574;2023-08-24T08:26:37;8.50;;;2.65;;
67665;SDS011;54448;51.472;-2.574;2023-08-24T08:29:03;15.32;;;3.00;;
67665;SDS011;54448;51.472;-2.574;2023-08-24T08:31:28;8.05;;;3.20;;
67665;SDS011;54448;51.472;-2.574;2023-08-24T08:33:53;11.93;;;3.00;;
67665;SDS011;54448;51.472;-2.574;2023-08-24T08:36:19;7.45;;;3.08;;
67665;SDS011;54448;51.472;-2.574;2023-08-24T08:38:45;7.75;;;2.70;;
67665;SDS011;54448;51.472;-2.574;2023-08-24T08:41:11;11.80;;;2.60;;
67665;SDS011;54448;51.472;-2.574;2023-08-24T08:43:38;11.52;;;2.90;;
67665;SDS011;54448;51.472;-2.574;2023-08-24T08:46:03;6.60;;;2.78;;
67665;SDS011;54448;51.472;-2.574;2023-08-24T08:48:30;10.43;;;2.55;;
67665;SDS011;54448;51.472;-2.574;2023-08-24T08:50:57;8.20;;;2.78;;
67665;SDS011;54448;51.472;-2.574;2023-08-24T08:53:23;7.47;;;2.75;;
67665;SDS011;54448;51.472;-2.574;2023-08-24T08:55:52;12.93;;;3.28;;
67665;SDS011;54448;51.472;-2.574;2023-08-24T08:58:19;4.22;;;2.03;;
67665;SDS011;54448;51.472;-2.574;2023-08-24T09:00:46;8.27;;;2.50;;
67665;SDS011;54448;51.472;-2.574;2023-08-24T09:03:12;5.35;;;2.45;;
67665;SDS011;54448;51.472;-2.574;2023-08-24T09:05:39;5.65;;;2.67;;
67665;SDS011;54448;51.472;-2.574;2023-08-24T09:08:05;6.63;;;2.05;;
67665;SDS011;54448;51.472;-2.574;2023-08-24T09:10:30;8.65;;;1.90;;
67665;SDS011;54448;51.472;-2.574;2023-08-24T09:12:56;6.13;;;2.15;;
67665;SDS011;54448;51.472;-2.574;2023-08-24T09:15:24;5.18;;;1.83;;
67665;SDS011;54448;51.472;-2.574;2023-08-24T09:17:51;6.18;;;2.38;;
67665;SDS011;54448;51.472;-2.574;2023-08-24T09:20:17;5.70;;;1.90;;
67665;SDS011;54448;51.472;-2.574;2023-08-24T09:22:45;5.20;;;1.90;;
67665;SDS011;54448;51.472;-2.574;2023-08-24T09:25:10;5.75;;;1.77;;
67665;SDS011;54448;51.472;-2.574;2023-08-24T09:27:36;4.05;;;2.00;;
67665;SDS011;54448;51.472;-2.574;2023-08-24T09:30:01;6.00;;;1.83;;
67665;SDS011;54448;51.472;-2.574;2023-08-24T09:32:28;9.23;;;2.30;;
67665;SDS011;54448;51.472;-2.574;2023-08-24T09:34:54;4.40;;;1.83;;
67665;SDS011;54448;51.472;-2.574;2023-08-24T09:37:19;3.30;;;1.58;;
67665;SDS011;54448;51.472;-2.574;2023-08-24T09:39:45;6.45;;;2.10;;
67665;SDS011;54448;51.472;-2.574;2023-08-24T09:42:10;7.15;;;2.05;;
67665;SDS011;54448;51.472;-2.574;2023-08-24T09:44:37;5.22;;;1.80;;
67665;SDS011;54448;51.472;-2.574;2023-08-24T09:47:06;4.43;;;2.13;;
67665;SDS011;54448;51.472;-2.574;2023-08-24T09:49:34;3.85;;;2.03;;
67665;SDS011;54448;51.472;-2.574;2023-08-24T09:51:59;4.28;;;1.98;;
67665;SDS011;54448;51.472;-2.574;2023-08-24T09:54:26;4.95;;;2.25;;
67665;SDS011;54448;51.472;-2.574;2023-08-24T09:56:52;6.28;;;2.20;;
67665;SDS011;54448;51.472;-2.574;2023-08-24T09:59:19;6.07;;;2.25;;
67665;SDS011;54448;51.472;-2.574;2023-08-24T10:01:49;3.80;;;2.03;;
67665;SDS011;54448;51.472;-2.574;2023-08-24T10:04:23;5.00;;;2.30;;
67665;SDS011;54448;51.472;-2.574;2023-08-24T10:06:53;11.15;;;2.38;;
67665;SDS011;54448;51.472;-2.574;2023-08-24T10:09:22;12.88;;;2.42;;
67665;SDS011;54448;51.472;-2.574;2023-08-24T10:11:56;6.65;;;2.28;;
67665;SDS011;54448;51.472;-2.574;2023-08-24T10:14:27;12.00;;;2.88;;
67665;SDS011;54448;51.472;-2.574;2023-08-24T10:16:55;8.10;;;2.13;;
67665;SDS011;54448;51.472;-2.574;2023-08-24T10:19:21;6.70;;;2.20;;
67665;SDS011;54448;51.472;-2.574;2023-08-24T10:21:47;6.65;;;2.30;;
67665;SDS011;54448;51.472;-2.574;2023-08-24T10:24:15;5.13;;;2.20;;
67665;SDS011;54448;51.472;-2.574;2023-08-24T10:26:41;6.22;;;2.30;;
67665;SDS011;54448;51.472;-2.574;2023-08-24T10:29:07;5.15;;;2.00;;
67665;SDS011;54448;51.472;-2.574;2023-08-24T10:31:33;4.72;;;1.75;;
67665;SDS011;54448;51.472;-2.574;2023-08-24T10:33:58;6.63;;;2.03;;
67665;SDS011;54448;51.472;-2.574;2023-08-24T10:36:24;4.68;;;1.95;;
67665;SDS011;54448;51.472;-2.574;2023-08-24T10:38:51;12.32;;;2.20;;
67665;SDS011;54448;51.472;-2.574;2023-08-24T10:41:20;5.65;;;1.90;;
67665;SDS011;54448;51.472;-2.574;2023-08-24T10:43:50;9.02;;;2.13;;
67665;SDS011;54448;51.472;-2.574;2023-08-24T10:46:15;4.22;;;1.65;;
67665;SDS011;54448;51.472;-2.574;2023-08-24T10:53:38;4.55;;;1.48;;
67665;SDS011;54448;51.472;-2.574;2023-08-24T10:56:15;4.88;;;1.52;;
67665;SDS011;54448;51.472;-2.574;2023-08-24T10:58:42;3.20;;;1.42;;
67665;SDS011;54448;51.472;-2.574;2023-08-24T11:01:16;5.18;;;2.00;;
67665;SDS011;54448;51.472;-2.574;2023-08-24T11:03:50;4.78;;;1.70;;
67665;SDS011;54448;51.472;-2.574;2023-08-24T11:06:25;7.70;;;2.53;;
67665;SDS011;54448;51.472;-2.574;2023-08-24T11:09:06;5.53;;;1.63;;
67665;SDS011;54448;51.472;-2.574;2023-08-24T11:11:38;5.32;;;1.80;;
67665;SDS011;54448;51.472;-2.574;2023-08-24T11:14:13;5.57;;;1.63;;
67665;SDS011;54448;51.472;-2.574;2023-08-24T11:16:47;3.38;;;1.48;;
67665;SDS011;54448;51.472;-2.574;2023-08-24T11:19:13;7.13;;;1.70;;
67665;SDS011;54448;51.472;-2.574;2023-08-24T11:21:40;5.38;;;1.40;;
67665;SDS011;54448;51.472;-2.574;2023-08-24T11:24:06;5.25;;;1.45;;
67665;SDS011;54448;51.472;-2.574;2023-08-24T11:26:33;2.65;;;1.75;;
67665;SDS011;54448;51.472;-2.574;2023-08-24T11:28:59;2.33;;;1.20;;
67665;SDS011;54448;51.472;-2.574;2023-08-24T11:31:24;4.25;;;1.38;;
67665;SDS011;54448;51.472;-2.574;2023-08-24T11:33:54;5.97;;;1.10;;
67665;SDS011;54448;51.472;-2.574;2023-08-24T11:36:22;5.43;;;1.30;;
67665;SDS011;54448;51.472;-2.574;2023-08-24T11:38:49;8.60;;;1.20;;
67665;SDS011;54448;51.472;-2.574;2023-08-24T11:41:17;5.57;;;1.20;;
67665;SDS011;54448;51.472;-2.574;2023-08-24T11:43:43;3.60;;;1.10;;
67665;SDS011;54448;51.472;-2.574;2023-08-24T11:46:09;2.42;;;0.90;;
67665;SDS011;54448;51.472;-2.574;2023-08-24T11:48:35;2.30;;;1.00;;
67665;SDS011;54448;51.472;-2.574;2023-08-24T11:51:02;6.78;;;1.20;;
67665;SDS011;54448;51.472;-2.574;2023-08-24T11:53:28;3.05;;;1.10;;
67665;SDS011;54448;51.472;-2.574;2023-08-24T11:55:56;2.38;;;1.00;;
67665;SDS011;54448;51.472;-2.574;2023-08-24T11:58:22;5.15;;;1.45;;
67665;SDS011;54448;51.472;-2.574;2023-08-24T12:00:47;3.67;;;1.20;;
67665;SDS011;54448;51.472;-2.574;2023-08-24T12:03:13;2.40;;;1.35;;
67665;SDS011;54448;51.472;-2.574;2023-08-24T12:05:38;3.00;;;1.40;;
67665;SDS011;54448;51.472;-2.574;2023-08-24T12:08:04;3.13;;;1.30;;
67665;SDS011;54448;51.472;-2.574;2023-08-24T12:10:30;2.80;;;1.40;;
67665;SDS011;54448;51.472;-2.574;2023-08-24T12:13:05;4.65;;;1.45;;
67665;SDS011;54448;51.472;-2.574;2023-08-24T12:15:33;4.45;;;1.70;;
67665;SDS011;54448;51.472;-2.574;2023-08-24T12:18:06;5.20;;;1.70;;
67665;SDS011;54448;51.472;-2.574;2023-08-24T12:20:32;3.35;;;1.50;;
67665;SDS011;54448;51.472;-2.574;2023-08-24T12:22:58;2.70;;;1.48;;
67665;SDS011;54448;51.472;-2.574;2023-08-24T12:25:24;2.83;;;1.45;;
67665;SDS011;54448;51.472;-2.574;2023-08-24T12:27:50;5.82;;;2.00;;
67665;SDS011;54448;51.472;-2.574;2023-08-24T12:30:17;3.25;;;1.80;;
67665;SDS011;54448;51.472;-2.574;2023-08-24T12:32:43;4.25;;;2.15;;
67665;SDS011;54448;51.472;-2.574;2023-08-24T12:35:09;6.88;;;2.25;;
67665;SDS011;54448;51.472;-2.574;2023-08-24T12:37:35;5.10;;;2.22;;
67665;SDS011;54448;51.472;-2.574;2023-08-24T12:40:01;7.03;;;2.00;;
67665;SDS011;54448;51.472;-2.574;2023-08-24T12:42:30;6.38;;;2.17;;
67665;SDS011;54448;51.472;-2.574;2023-08-24T12:44:56;5.45;;;1.70;;
67665;SDS011;54448;51.472;-2.574;2023-08-24T12:47:21;3.67;;;1.90;;
67665;SDS011;54448;51.472;-2.574;2023-08-24T12:49:47;7.03;;;1.70;;
67665;SDS011;54448;51.472;-2.574;2023-08-24T12:52:13;3.42;;;1.38;;
67665;SDS011;54448;51.472;-2.574;2023-08-24T12:54:39;3.58;;;1.33;;
67665;SDS011;54448;51.472;-2.574;2023-08-24T12:57:04;3.50;;;1.52;;
67665;SDS011;54448;51.472;-2.574;2023-08-24T12:59:29;4.60;;;1.58;;
67665;SDS011;54448;51.472;-2.574;2023-08-24T13:01:55;3.63;;;1.60;;
67665;SDS011;54448;51.472;-2.574;2023-08-24T13:04:20;6.32;;;2.08;;
67665;SDS011;54448;51.472;-2.574;2023-08-24T13:06:46;7.07;;;2.90;;
67665;SDS011;54448;51.472;-2.574;2023-08-24T13:09:11;8.30;;;2.33;;
67665;SDS011;54448;51.472;-2.574;2023-08-24T13:11:38;4.85;;;2.40;;
67665;SDS011;54448;51.472;-2.574;2023-08-24T13:14:04;6.97;;;2.60;;
67665;SDS011;54448;51.472;-2.574;2023-08-24T13:16:29;4.53;;;2.90;;
67665;SDS011;54448;51.472;-2.574;2023-08-24T13:18:55;44.67;;;4.35;;
67665;SDS011;54448;51.472;-2.574;2023-08-24T13:21:20;4.63;;;2.05;;
67665;SDS011;54448;51.472;-2.574;2023-08-24T13:23:45;3.70;;;1.60;;
67665;SDS011;54448;51.472;-2.574;2023-08-24T13:26:20;4.50;;;1.73;;
67665;SDS011;54448;51.472;-2.574;2023-08-24T13:28:48;4.07;;;1.40;;
67665;SDS011;54448;51.472;-2.574;2023-08-24T13:31:13;5.85;;;1.25;;
67665;SDS011;54448;51.472;-2.574;2023-08-24T13:33:39;3.15;;;1.02;;
67665;SDS011;54448;51.472;-2.574;2023-08-24T13:36:04;2.28;;;0.90;;
67665;SDS011;54448;51.472;-2.574;2023-08-24T13:38:30;2.85;;;0.88;;
67665;SDS011;54448;51.472;-2.574;2023-08-24T13:40:55;3.72;;;0.77;;
67665;SDS011;54448;51.472;-2.574;2023-08-24T13:43:21;2.15;;;0.70;;
67665;SDS011;54448;51.472;-2.574;2023-08-24T13:45:46;2.13;;;0.80;;
67665;SDS011;54448;51.472;-2.574;2023-08-24T13:48:12;7.00;;;0.90;;
67665;SDS011;54448;51.472;-2.574;2023-08-24T13:50:37;1.90;;;0.80;;
67665;SDS011;54448;51.472;-2.574;2023-08-24T13:53:03;1.83;;;0.60;;
67665;SDS011;54448;51.472;-2.574;2023-08-24T13:55:28;2.55;;;0.85;;
67665;SDS011;54448;51.472;-2.574;2023-08-24T13:57:54;1.58;;;0.60;;
67665;SDS011;54448;51.472;-2.574;2023-08-24T14:00:19;1.33;;;0.70;;
67665;SDS011;54448;51.472;-2.574;2023-08-24T14:02:45;1.30;;;0.60;;
67665;SDS011;54448;51.472;-2.574;2023-08-24T14:05:12;2.65;;;0.60;;
67665;SDS011;54448;51.472;-2.574;2023-08-24T14:07:38;2.63;;;0.90;;
67665;SDS011;54448;51.472;-2.574;2023-08-24T14:10:03;3.85;;;0.80;;
67665;SDS011;54448;51.472;-2.574;2023-08-24T14:12:29;3.88;;;0.80;;
67665;SDS011;54448;51.472;-2.574;2023-08-24T14:14:55;3.72;;;1.00;;
67665;SDS011;54448;51.472;-2.574;2023-08-24T14:17:20;5.57;;;1.00;;
67665;SDS011;54448;51.472;-2.574;2023-08-24T14:19:46;4.63;;;1.20;;
67665;SDS011;54448;51.472;-2.574;2023-08-24T14:22:11;4.90;;;1.50;;
67665;SDS011;54448;51.472;-2.574;2023-08-24T14:24:37;2.90;;;2.10;;
67665;SDS011;54448;51.472;-2.574;2023-08-24T14:27:02;5.40;;;2.33;;
67665;SDS011;54448;51.472;-2.574;2023-08-24T14:29:28;5.22;;;2.35;;
67665;SDS011;54448;51.472;-2.574;2023-08-24T14:31:53;4.97;;;2.28;;
67665;SDS011;54448;51.472;-2.574;2023-08-24T14:34:18;5.70;;;2.90;;
67665;SDS011;54448;51.472;-2.574;2023-08-24T14:36:44;9.40;;;2.88;;